sensor_id;sensor_type;location;lat;lon;timestamp;P1;durP1;ratioP1;P2;durP2;ratioP2
49109;SDS011;34921;52.320;16.142;2022-08-21T00:02:26;13.80;;;9.90;;
49109;SDS011;34921;52.320;16.142;2022-08-21T00:04:53;10.67;;;8.63;;
49109;SDS011;34921;52.320;16.142;2022-08-21T00:07:20;13.08;;;8.73;;
49109;SDS011;34921;52.320;16.142;2022-08-21T00:09:47;12.00;;;10.13;;
49109;SDS011;34921;52.320;16.142;2022-08-21T00:12:13;11.70;;;10.05;;
49109;SDS011;34921;52.320;16.142;2022-08-21T00:14:39;16.67;;;10.20;;
49109;SDS011;34921;52.320;16.142;2022-08-21T00:17:06;11.43;;;9.50;;
49109;SDS011;34921;52.320;16.142;2022-08-21T00:19:32;10.38;;;8.28;;
49109;SDS011;34921;52.320;16.142;2022-08-21T00:21:59;12.90;;;9.18;;
49109;SDS011;34921;52.320;16.142;2022-08-21T00:24:25;12.23;;;9.37;;
49109;SDS011;34921;52.320;16.142;2022-08-21T00:26:52;11.65;;;9.25;;
49109;SDS011;34921;52.320;16.142;2022-08-21T00:29:19;14.28;;;9.93;;
49109;SDS011;34921;52.320;16.142;2022-08-21T00:31:45;15.20;;;9.88;;
49109;SDS011;34921;52.320;16.142;2022-08-21T00:34:11;12.10;;;9.70;;
49109;SDS011;34921;52.320;16.142;2022-08-21T00:36:39;13.05;;;10.28;;
49109;SDS011;34921;52.320;16.142;2022-08-21T00:39:06;13.65;;;10.98;;
49109;SDS011;34921;52.320;16.142;2022-08-21T00:41:34;15.05;;;11.57;;
49109;SDS011;34921;52.320;16.142;2022-08-21T00:44:02;13.98;;;10.82;;
49109;SDS011;34921;52.320;16.142;2022-08-21T00:46:29;12.98;;;10.88;;
49109;SDS011;34921;52.320;16.142;2022-08-21T00:48:55;12.57;;;11.23;;
49109;SDS011;34921;52.320;16.142;2022-08-21T00:51:24;13.65;;;11.65;;
49109;SDS011;34921;52.320;16.142;2022-08-21T00:53:53;12.95;;;10.88;;
49109;SDS011;34921;52.320;16.142;2022-08-21T00:56:21;15.30;;;11.85;;
49109;SDS011;34921;52.320;16.142;2022-08-21T00:58:49;13.60;;;11.53;;
49109;SDS011;34921;52.320;16.142;2022-08-21T01:01:15;15.03;;;11.43;;
49109;SDS011;34921;52.320;16.142;2022-08-21T01:03:41;13.98;;;11.93;;
49109;SDS011;34921;52.320;16.142;2022-08-21T01:06:08;15.18;;;12.70;;
49109;SDS011;34921;52.320;16.142;2022-08-21T01:11:03;14.18;;;11.85;;
49109;SDS011;34921;52.320;16.142;2022-08-21T01:13:32;15.48;;;12.43;;
49109;SDS011;34921;52.320;16.142;2022-08-21T01:16:01;17.20;;;12.37;;
49109;SDS011;34921;52.320;16.142;2022-08-21T01:18:29;15.20;;;12.80;;
49109;SDS011;34921;52.320;16.142;2022-08-21T01:23:24;14.68;;;12.65;;
49109;SDS011;34921;52.320;16.142;2022-08-21T01:28:24;13.13;;;11.73;;
49109;SDS011;34921;52.320;16.142;2022-08-21T01:35:56;17.62;;;12.18;;
49109;SDS011;34921;52.320;16.142;2022-08-21T01:40:55;15.00;;;13.08;;
49109;SDS011;34921;52.320;16.142;2022-08-21T01:45:53;16.93;;;14.05;;
49109;SDS011;34921;52.320;16.142;2022-08-21T01:48:19;14.33;;;12.68;;
49109;SDS011;34921;52.320;16.142;2022-08-21T01:50:45;13.88;;;11.93;;
49109;SDS011;34921;52.320;16.142;2022-08-21T01:53:11;16.00;;;12.78;;
49109;SDS011;34921;52.320;16.142;2022-08-21T01:55:39;15.08;;;12.10;;
49109;SDS011;34921;52.320;16.142;2022-08-21T01:58:05;16.70;;;13.48;;
49109;SDS011;34921;52.320;16.142;2022-08-21T02:00:31;14.60;;;13.00;;
49109;SDS011;34921;52.320;16.142;2022-08-21T02:02:57;15.90;;;13.58;;
49109;SDS011;34921;52.320;16.142;2022-08-21T02:05:23;16.12;;;13.32;;
49109;SDS011;34921;52.320;16.142;2022-08-21T02:07:50;16.10;;;12.37;;
49109;SDS011;34921;52.320;16.142;2022-08-21T02:10:19;16.20;;;13.93;;
49109;SDS011;34921;52.320;16.142;2022-08-21T02:12:47;17.37;;;13.32;;
49109;SDS011;34921;52.320;16.142;2022-08-21T02:15:14;17.00;;;13.72;;
49109;SDS011;34921;52.320;16.142;2022-08-21T02:20:20;15.95;;;13.32;;
49109;SDS011;34921;52.320;16.142;2022-08-21T02:25:27;15.75;;;12.60;;
49109;SDS011;34921;52.320;16.142;2022-08-21T02:27:54;17.02;;;13.20;;
49109;SDS011;34921;52.320;16.142;2022-08-21T02:30:22;17.50;;;13.03;;
49109;SDS011;34921;52.320;16.142;2022-08-21T02:32:56;16.55;;;13.13;;
49109;SDS011;34921;52.320;16.142;2022-08-21T02:35:23;15.05;;;12.43;;
49109;SDS011;34921;52.320;16.142;2022-08-21T02:37:51;15.03;;;13.03;;
49109;SDS011;34921;52.320;16.142;2022-08-21T02:40:31;13.95;;;12.05;;
49109;SDS011;34921;52.320;16.142;2022-08-21T02:45:26;13.93;;;11.10;;
49109;SDS011;34921;52.320;16.142;2022-08-21T02:47:58;12.45;;;10.72;;
49109;SDS011;34921;52.320;16.142;2022-08-21T02:50:31;14.70;;;10.70;;
49109;SDS011;34921;52.320;16.142;2022-08-21T02:55:32;12.37;;;10.40;;
49109;SDS011;34921;52.320;16.142;2022-08-21T02:57:59;12.63;;;10.50;;
49109;SDS011;34921;52.320;16.142;2022-08-21T03:00:26;12.60;;;10.25;;
49109;SDS011;34921;52.320;16.142;2022-08-21T03:02:54;14.07;;;11.18;;
49109;SDS011;34921;52.320;16.142;2022-08-21T03:05:22;12.55;;;11.22;;
49109;SDS011;34921;52.320;16.142;2022-08-21T03:07:49;12.93;;;10.20;;
49109;SDS011;34921;52.320;16.142;2022-08-21T03:10:16;15.50;;;10.05;;
49109;SDS011;34921;52.320;16.142;2022-08-21T03:12:42;14.55;;;11.05;;
49109;SDS011;34921;52.320;16.142;2022-08-21T03:15:10;12.78;;;10.78;;
49109;SDS011;34921;52.320;16.142;2022-08-21T03:17:38;12.65;;;10.05;;
49109;SDS011;34921;52.320;16.142;2022-08-21T03:20:05;11.78;;;10.23;;
49109;SDS011;34921;52.320;16.142;2022-08-21T03:22:31;13.00;;;10.53;;
49109;SDS011;34921;52.320;16.142;2022-08-21T03:24:58;12.90;;;9.90;;
49109;SDS011;34921;52.320;16.142;2022-08-21T03:27:25;12.15;;;9.38;;
49109;SDS011;34921;52.320;16.142;2022-08-21T03:29:53;11.90;;;9.20;;
49109;SDS011;34921;52.320;16.142;2022-08-21T03:32:19;11.10;;;8.83;;
49109;SDS011;34921;52.320;16.142;2022-08-21T03:34:45;10.53;;;7.58;;
49109;SDS011;34921;52.320;16.142;2022-08-21T03:37:12;10.55;;;8.75;;
49109;SDS011;34921;52.320;16.142;2022-08-21T03:39:40;12.05;;;7.78;;
49109;SDS011;34921;52.320;16.142;2022-08-21T03:42:07;12.85;;;8.15;;
49109;SDS011;34921;52.320;16.142;2022-08-21T03:44:35;11.45;;;7.47;;
49109;SDS011;34921;52.320;16.142;2022-08-21T03:47:01;10.40;;;6.53;;
49109;SDS011;34921;52.320;16.142;2022-08-21T03:49:27;11.03;;;7.00;;
49109;SDS011;34921;52.320;16.142;2022-08-21T03:51:53;10.15;;;6.87;;
49109;SDS011;34921;52.320;16.142;2022-08-21T03:54:20;10.40;;;7.22;;
49109;SDS011;34921;52.320;16.142;2022-08-21T03:56:46;9.83;;;6.30;;
49109;SDS011;34921;52.320;16.142;2022-08-21T03:59:13;8.65;;;6.25;;
49109;SDS011;34921;52.320;16.142;2022-08-21T04:01:39;9.05;;;6.15;;
49109;SDS011;34921;52.320;16.142;2022-08-21T04:04:05;10.60;;;6.62;;
49109;SDS011;34921;52.320;16.142;2022-08-21T04:06:32;8.93;;;6.45;;
49109;SDS011;34921;52.320;16.142;2022-08-21T04:08:58;9.95;;;6.05;;
49109;SDS011;34921;52.320;16.142;2022-08-21T04:11:24;9.03;;;5.53;;
49109;SDS011;34921;52.320;16.142;2022-08-21T04:13:50;7.33;;;5.33;;
49109;SDS011;34921;52.320;16.142;2022-08-21T04:16:17;10.85;;;5.53;;
49109;SDS011;34921;52.320;16.142;2022-08-21T04:18:43;7.20;;;5.12;;
49109;SDS011;34921;52.320;16.142;2022-08-21T04:21:10;9.53;;;5.35;;
49109;SDS011;34921;52.320;16.142;2022-08-21T04:23:37;7.97;;;5.43;;
49109;SDS011;34921;52.320;16.142;2022-08-21T04:26:04;8.30;;;4.97;;
49109;SDS011;34921;52.320;16.142;2022-08-21T04:28:30;7.92;;;5.15;;
49109;SDS011;34921;52.320;16.142;2022-08-21T04:30:56;9.55;;;5.00;;
49109;SDS011;34921;52.320;16.142;2022-08-21T04:33:22;6.58;;;4.37;;
49109;SDS011;34921;52.320;16.142;2022-08-21T04:35:50;7.97;;;4.30;;
49109;SDS011;34921;52.320;16.142;2022-08-21T04:38:16;7.42;;;4.20;;
49109;SDS011;34921;52.320;16.142;2022-08-21T04:40:43;9.93;;;4.85;;
49109;SDS011;34921;52.320;16.142;2022-08-21T04:43:10;7.80;;;3.92;;
49109;SDS011;34921;52.320;16.142;2022-08-21T04:45:38;7.65;;;4.05;;
49109;SDS011;34921;52.320;16.142;2022-08-21T04:48:09;7.55;;;3.77;;
49109;SDS011;34921;52.320;16.142;2022-08-21T04:50:45;9.83;;;3.65;;
49109;SDS011;34921;52.320;16.142;2022-08-21T04:53:22;8.65;;;4.08;;
49109;SDS011;34921;52.320;16.142;2022-08-21T04:55:49;6.53;;;3.87;;
49109;SDS011;34921;52.320;16.142;2022-08-21T04:58:18;9.20;;;3.52;;
49109;SDS011;34921;52.320;16.142;2022-08-21T05:00:45;6.33;;;3.55;;
49109;SDS011;34921;52.320;16.142;2022-08-21T05:03:12;6.97;;;3.47;;
49109;SDS011;34921;52.320;16.142;2022-08-21T05:05:40;7.75;;;3.30;;
49109;SDS011;34921;52.320;16.142;2022-08-21T05:08:07;8.18;;;3.40;;
49109;SDS011;34921;52.320;16.142;2022-08-21T05:10:33;7.90;;;3.05;;
49109;SDS011;34921;52.320;16.142;2022-08-21T05:12:59;6.58;;;3.00;;
49109;SDS011;34921;52.320;16.142;2022-08-21T05:15:26;7.20;;;3.67;;
49109;SDS011;34921;52.320;16.142;2022-08-21T05:17:53;6.80;;;3.00;;
49109;SDS011;34921;52.320;16.142;2022-08-21T05:20:19;6.22;;;3.30;;
49109;SDS011;34921;52.320;16.142;2022-08-21T05:22:45;7.80;;;3.40;;
49109;SDS011;34921;52.320;16.142;2022-08-21T05:25:11;7.05;;;3.10;;
49109;SDS011;34921;52.320;16.142;2022-08-21T05:27:38;5.55;;;3.00;;
49109;SDS011;34921;52.320;16.142;2022-08-21T05:30:07;7.37;;;3.20;;
49109;SDS011;34921;52.320;16.142;2022-08-21T05:32:34;6.07;;;2.43;;
49109;SDS011;34921;52.320;16.142;2022-08-21T05:35:02;5.25;;;2.30;;
49109;SDS011;34921;52.320;16.142;2022-08-21T05:37:31;6.00;;;2.62;;
49109;SDS011;34921;52.320;16.142;2022-08-21T05:39:58;5.65;;;2.45;;
49109;SDS011;34921;52.320;16.142;2022-08-21T05:42:25;6.58;;;2.80;;
49109;SDS011;34921;52.320;16.142;2022-08-21T05:44:51;6.87;;;2.72;;
49109;SDS011;34921;52.320;16.142;2022-08-21T05:47:17;5.70;;;2.35;;
49109;SDS011;34921;52.320;16.142;2022-08-21T05:49:44;7.55;;;2.77;;
49109;SDS011;34921;52.320;16.142;2022-08-21T05:52:10;5.50;;;2.33;;
49109;SDS011;34921;52.320;16.142;2022-08-21T05:54:36;6.17;;;2.67;;
49109;SDS011;34921;52.320;16.142;2022-08-21T05:57:03;8.40;;;2.90;;
49109;SDS011;34921;52.320;16.142;2022-08-21T05:59:30;5.42;;;2.10;;
49109;SDS011;34921;52.320;16.142;2022-08-21T06:01:56;4.72;;;1.98;;
49109;SDS011;34921;52.320;16.142;2022-08-21T06:04:22;5.28;;;2.30;;
49109;SDS011;34921;52.320;16.142;2022-08-21T06:06:48;4.67;;;2.07;;
49109;SDS011;34921;52.320;16.142;2022-08-21T06:09:14;4.08;;;2.10;;
49109;SDS011;34921;52.320;16.142;2022-08-21T06:11:40;7.22;;;2.42;;
49109;SDS011;34921;52.320;16.142;2022-08-21T06:14:06;7.83;;;2.20;;
49109;SDS011;34921;52.320;16.142;2022-08-21T06:16:33;4.12;;;2.00;;
49109;SDS011;34921;52.320;16.142;2022-08-21T06:18:59;5.20;;;2.00;;
49109;SDS011;34921;52.320;16.142;2022-08-21T06:21:25;5.58;;;2.15;;
49109;SDS011;34921;52.320;16.142;2022-08-21T06:23:51;5.70;;;2.30;;
49109;SDS011;34921;52.320;16.142;2022-08-21T06:26:17;6.55;;;2.33;;
49109;SDS011;34921;52.320;16.142;2022-08-21T06:28:44;4.30;;;2.00;;
49109;SDS011;34921;52.320;16.142;2022-08-21T06:31:20;5.35;;;2.00;;
49109;SDS011;34921;52.320;16.142;2022-08-21T06:33:48;5.12;;;2.02;;
49109;SDS011;34921;52.320;16.142;2022-08-21T06:36:16;4.35;;;2.00;;
49109;SDS011;34921;52.320;16.142;2022-08-21T06:38:43;5.40;;;2.00;;
49109;SDS011;34921;52.320;16.142;2022-08-21T06:41:09;3.35;;;1.55;;
49109;SDS011;34921;52.320;16.142;2022-08-21T06:43:35;4.17;;;1.75;;
49109;SDS011;34921;52.320;16.142;2022-08-21T06:46:02;7.25;;;2.20;;
49109;SDS011;34921;52.320;16.142;2022-08-21T06:48:28;3.72;;;1.80;;
49109;SDS011;34921;52.320;16.142;2022-08-21T06:50:58;5.20;;;1.80;;
49109;SDS011;34921;52.320;16.142;2022-08-21T06:53:25;3.60;;;1.62;;
49109;SDS011;34921;52.320;16.142;2022-08-21T06:55:52;3.70;;;1.65;;
49109;SDS011;34921;52.320;16.142;2022-08-21T06:58:18;5.37;;;1.77;;
49109;SDS011;34921;52.320;16.142;2022-08-21T07:00:47;6.00;;;1.82;;
49109;SDS011;34921;52.320;16.142;2022-08-21T07:03:19;3.37;;;1.90;;
49109;SDS011;34921;52.320;16.142;2022-08-21T07:08:17;5.33;;;1.98;;
49109;SDS011;34921;52.320;16.142;2022-08-21T07:10:44;4.70;;;2.05;;
49109;SDS011;34921;52.320;16.142;2022-08-21T07:13:10;6.08;;;2.60;;
49109;SDS011;34921;52.320;16.142;2022-08-21T07:15:37;6.53;;;2.33;;
49109;SDS011;34921;52.320;16.142;2022-08-21T07:18:04;7.53;;;2.17;;
49109;SDS011;34921;52.320;16.142;2022-08-21T07:22:59;4.75;;;2.02;;
49109;SDS011;34921;52.320;16.142;2022-08-21T07:25:26;8.68;;;2.55;;
49109;SDS011;34921;52.320;16.142;2022-08-21T07:27:53;5.78;;;2.05;;
49109;SDS011;34921;52.320;16.142;2022-08-21T07:30:19;6.75;;;2.05;;
49109;SDS011;34921;52.320;16.142;2022-08-21T07:32:46;4.67;;;1.80;;
49109;SDS011;34921;52.320;16.142;2022-08-21T07:35:15;6.60;;;2.50;;
49109;SDS011;34921;52.320;16.142;2022-08-21T07:37:42;6.50;;;2.40;;
49109;SDS011;34921;52.320;16.142;2022-08-21T07:40:08;5.75;;;2.12;;
49109;SDS011;34921;52.320;16.142;2022-08-21T07:42:39;7.60;;;1.98;;
49109;SDS011;34921;52.320;16.142;2022-08-21T07:45:09;5.12;;;2.12;;
49109;SDS011;34921;52.320;16.142;2022-08-21T07:47:37;5.90;;;2.30;;
49109;SDS011;34921;52.320;16.142;2022-08-21T07:52:37;7.05;;;3.30;;
49109;SDS011;34921;52.320;16.142;2022-08-21T07:55:04;5.78;;;2.50;;
49109;SDS011;34921;52.320;16.142;2022-08-21T07:57:30;5.28;;;2.50;;
49109;SDS011;34921;52.320;16.142;2022-08-21T07:59:59;6.25;;;2.22;;
49109;SDS011;34921;52.320;16.142;2022-08-21T08:07:32;6.08;;;2.70;;
49109;SDS011;34921;52.320;16.142;2022-08-21T08:09:59;4.72;;;2.25;;
49109;SDS011;34921;52.320;16.142;2022-08-21T08:12:26;9.15;;;2.83;;
49109;SDS011;34921;52.320;16.142;2022-08-21T08:17:28;5.50;;;2.60;;
49109;SDS011;34921;52.320;16.142;2022-08-21T08:19:54;7.28;;;3.12;;
49109;SDS011;34921;52.320;16.142;2022-08-21T08:22:22;6.40;;;2.70;;
49109;SDS011;34921;52.320;16.142;2022-08-21T08:24:53;7.08;;;2.62;;
49109;SDS011;34921;52.320;16.142;2022-08-21T08:27:20;4.87;;;2.72;;
49109;SDS011;34921;52.320;16.142;2022-08-21T08:29:50;5.53;;;2.53;;
49109;SDS011;34921;52.320;16.142;2022-08-21T08:34:51;3.65;;;1.82;;
49109;SDS011;34921;52.320;16.142;2022-08-21T08:39:55;7.75;;;2.85;;
49109;SDS011;34921;52.320;16.142;2022-08-21T08:42:27;5.97;;;2.80;;
49109;SDS011;34921;52.320;16.142;2022-08-21T08:50:02;9.83;;;5.80;;
49109;SDS011;34921;52.320;16.142;2022-08-21T08:57:43;9.73;;;5.53;;
49109;SDS011;34921;52.320;16.142;2022-08-21T09:00:12;11.60;;;4.93;;
49109;SDS011;34921;52.320;16.142;2022-08-21T09:02:45;8.78;;;3.60;;
49109;SDS011;34921;52.320;16.142;2022-08-21T09:05:19;7.50;;;3.72;;
49109;SDS011;34921;52.320;16.142;2022-08-21T09:11:10;7.50;;;3.40;;
49109;SDS011;34921;52.320;16.142;2022-08-21T09:13:50;7.22;;;3.37;;
49109;SDS011;34921;52.320;16.142;2022-08-21T09:16:35;6.10;;;3.20;;
49109;SDS011;34921;52.320;16.142;2022-08-21T09:24:40;5.45;;;3.05;;
49109;SDS011;34921;52.320;16.142;2022-08-21T09:27:16;5.50;;;3.20;;
49109;SDS011;34921;52.320;16.142;2022-08-21T09:32:18;5.50;;;3.22;;
49109;SDS011;34921;52.320;16.142;2022-08-21T09:37:28;5.83;;;3.20;;
49109;SDS011;34921;52.320;16.142;2022-08-21T09:39:57;5.62;;;2.80;;
49109;SDS011;34921;52.320;16.142;2022-08-21T09:45:11;5.40;;;3.05;;
49109;SDS011;34921;52.320;16.142;2022-08-21T09:47:43;4.60;;;2.65;;
49109;SDS011;34921;52.320;16.142;2022-08-21T09:50:17;5.77;;;3.20;;
49109;SDS011;34921;52.320;16.142;2022-08-21T09:58:29;5.65;;;2.87;;
49109;SDS011;34921;52.320;16.142;2022-08-21T10:03:29;6.43;;;3.70;;
49109;SDS011;34921;52.320;16.142;2022-08-21T10:08:27;6.12;;;3.02;;
49109;SDS011;34921;52.320;16.142;2022-08-21T10:29:17;5.75;;;3.75;;
49109;SDS011;34921;52.320;16.142;2022-08-21T10:32:15;5.30;;;3.70;;
49109;SDS011;34921;52.320;16.142;2022-08-21T10:43:02;6.90;;;4.08;;
49109;SDS011;34921;52.320;16.142;2022-08-21T10:51:36;6.83;;;3.95;;
49109;SDS011;34921;52.320;16.142;2022-08-21T10:57:11;7.17;;;4.33;;
49109;SDS011;34921;52.320;16.142;2022-08-21T10:59:52;7.10;;;4.40;;
49109;SDS011;34921;52.320;16.142;2022-08-21T11:02:28;7.03;;;4.50;;
49109;SDS011;34921;52.320;16.142;2022-08-21T11:10:25;5.90;;;4.10;;
49109;SDS011;34921;52.320;16.142;2022-08-21T11:13:05;7.53;;;3.90;;
49109;SDS011;34921;52.320;16.142;2022-08-21T11:21:03;4.80;;;4.05;;
49109;SDS011;34921;52.320;16.142;2022-08-21T11:23:57;6.10;;;4.78;;
49109;SDS011;34921;52.320;16.142;2022-08-21T11:26:32;10.90;;;9.35;;
49109;SDS011;34921;52.320;16.142;2022-08-21T11:29:31;7.92;;;6.33;;
49109;SDS011;34921;52.320;16.142;2022-08-21T11:37:38;5.03;;;3.92;;
49109;SDS011;34921;52.320;16.142;2022-08-21T11:40:35;5.12;;;3.20;;
49109;SDS011;34921;52.320;16.142;2022-08-21T11:51:30;4.95;;;3.50;;
49109;SDS011;34921;52.320;16.142;2022-08-21T12:02:38;5.22;;;4.20;;
49109;SDS011;34921;52.320;16.142;2022-08-21T12:05:11;6.92;;;4.22;;
49109;SDS011;34921;52.320;16.142;2022-08-21T12:07:48;5.60;;;4.10;;
49109;SDS011;34921;52.320;16.142;2022-08-21T12:10:59;4.12;;;3.72;;
49109;SDS011;34921;52.320;16.142;2022-08-21T12:13:31;5.78;;;4.42;;
49109;SDS011;34921;52.320;16.142;2022-08-21T12:16:10;5.87;;;5.17;;
49109;SDS011;34921;52.320;16.142;2022-08-21T12:18:42;6.12;;;4.53;;
49109;SDS011;34921;52.320;16.142;2022-08-21T12:21:26;6.00;;;3.72;;
49109;SDS011;34921;52.320;16.142;2022-08-21T12:32:20;7.22;;;4.70;;
49109;SDS011;34921;52.320;16.142;2022-08-21T12:34:53;7.55;;;5.10;;
49109;SDS011;34921;52.320;16.142;2022-08-21T12:40:02;7.20;;;4.80;;
49109;SDS011;34921;52.320;16.142;2022-08-21T12:42:40;6.47;;;4.62;;
49109;SDS011;34921;52.320;16.142;2022-08-21T12:47:57;5.60;;;4.12;;
49109;SDS011;34921;52.320;16.142;2022-08-21T12:55:46;5.42;;;2.98;;
49109;SDS011;34921;52.320;16.142;2022-08-21T12:58:22;5.25;;;2.60;;
49109;SDS011;34921;52.320;16.142;2022-08-21T13:03:25;4.35;;;2.40;;
49109;SDS011;34921;52.320;16.142;2022-08-21T13:05:52;3.60;;;2.40;;
49109;SDS011;34921;52.320;16.142;2022-08-21T13:08:20;4.30;;;2.80;;
49109;SDS011;34921;52.320;16.142;2022-08-21T13:13:24;3.62;;;2.67;;
49109;SDS011;34921;52.320;16.142;2022-08-21T13:15:56;3.72;;;2.47;;
49109;SDS011;34921;52.320;16.142;2022-08-21T13:18:26;4.22;;;2.90;;
49109;SDS011;34921;52.320;16.142;2022-08-21T13:21:09;5.83;;;3.12;;
49109;SDS011;34921;52.320;16.142;2022-08-21T13:23:40;4.12;;;2.87;;
49109;SDS011;34921;52.320;16.142;2022-08-21T13:26:19;5.45;;;2.90;;
49109;SDS011;34921;52.320;16.142;2022-08-21T13:34:12;5.28;;;2.85;;
49109;SDS011;34921;52.320;16.142;2022-08-21T13:36:39;5.40;;;2.90;;
49109;SDS011;34921;52.320;16.142;2022-08-21T13:39:12;4.40;;;2.90;;
49109;SDS011;34921;52.320;16.142;2022-08-21T13:44:19;4.17;;;2.70;;
49109;SDS011;34921;52.320;16.142;2022-08-21T13:46:55;5.22;;;3.05;;
49109;SDS011;34921;52.320;16.142;2022-08-21T13:49:24;4.35;;;2.62;;
49109;SDS011;34921;52.320;16.142;2022-08-21T13:54:44;4.65;;;2.62;;
49109;SDS011;34921;52.320;16.142;2022-08-21T14:05:28;5.08;;;2.42;;
49109;SDS011;34921;52.320;16.142;2022-08-21T14:08:08;3.77;;;2.30;;
49109;SDS011;34921;52.320;16.142;2022-08-21T14:10:45;3.92;;;2.50;;
49109;SDS011;34921;52.320;16.142;2022-08-21T14:16:10;4.70;;;2.60;;
49109;SDS011;34921;52.320;16.142;2022-08-21T14:21:09;5.25;;;2.52;;
49109;SDS011;34921;52.320;16.142;2022-08-21T14:23:37;3.70;;;1.98;;
49109;SDS011;34921;52.320;16.142;2022-08-21T14:26:04;3.52;;;1.87;;
49109;SDS011;34921;52.320;16.142;2022-08-21T14:33:55;5.42;;;1.90;;
49109;SDS011;34921;52.320;16.142;2022-08-21T14:38:51;4.63;;;2.40;;
49109;SDS011;34921;52.320;16.142;2022-08-21T14:41:23;5.70;;;2.20;;
49109;SDS011;34921;52.320;16.142;2022-08-21T14:51:44;4.15;;;2.00;;
49109;SDS011;34921;52.320;16.142;2022-08-21T14:54:11;5.15;;;1.92;;
49109;SDS011;34921;52.320;16.142;2022-08-21T15:01:46;4.33;;;1.70;;
49109;SDS011;34921;52.320;16.142;2022-08-21T15:06:47;4.95;;;2.20;;
49109;SDS011;34921;52.320;16.142;2022-08-21T15:09:16;4.12;;;1.90;;
49109;SDS011;34921;52.320;16.142;2022-08-21T15:11:43;4.28;;;2.10;;
49109;SDS011;34921;52.320;16.142;2022-08-21T15:16:47;4.12;;;2.12;;
49109;SDS011;34921;52.320;16.142;2022-08-21T15:21:42;3.55;;;2.35;;
49109;SDS011;34921;52.320;16.142;2022-08-21T15:26:43;5.70;;;2.15;;
49109;SDS011;34921;52.320;16.142;2022-08-21T15:31:53;5.30;;;2.17;;
49109;SDS011;34921;52.320;16.142;2022-08-21T15:36:56;5.03;;;2.10;;
49109;SDS011;34921;52.320;16.142;2022-08-21T15:39:24;4.72;;;2.02;;
49109;SDS011;34921;52.320;16.142;2022-08-21T15:41:51;7.97;;;2.35;;
49109;SDS011;34921;52.320;16.142;2022-08-21T15:47:05;5.90;;;1.82;;
49109;SDS011;34921;52.320;16.142;2022-08-21T15:49:34;3.37;;;1.80;;
49109;SDS011;34921;52.320;16.142;2022-08-21T15:52:01;5.72;;;1.98;;
49109;SDS011;34921;52.320;16.142;2022-08-21T15:54:27;5.10;;;2.10;;
49109;SDS011;34921;52.320;16.142;2022-08-21T15:56:54;7.08;;;1.87;;
49109;SDS011;34921;52.320;16.142;2022-08-21T15:59:21;4.87;;;2.00;;
49109;SDS011;34921;52.320;16.142;2022-08-21T16:01:51;4.08;;;2.12;;
49109;SDS011;34921;52.320;16.142;2022-08-21T16:04:19;4.53;;;2.00;;
49109;SDS011;34921;52.320;16.142;2022-08-21T16:06:48;4.60;;;1.90;;
49109;SDS011;34921;52.320;16.142;2022-08-21T16:09:15;5.00;;;2.27;;
49109;SDS011;34921;52.320;16.142;2022-08-21T16:11:42;6.03;;;2.33;;
49109;SDS011;34921;52.320;16.142;2022-08-21T16:14:13;4.53;;;2.37;;
49109;SDS011;34921;52.320;16.142;2022-08-21T16:16:41;6.37;;;2.22;;
49109;SDS011;34921;52.320;16.142;2022-08-21T16:19:09;4.67;;;2.25;;
49109;SDS011;34921;52.320;16.142;2022-08-21T16:21:36;5.50;;;2.08;;
49109;SDS011;34921;52.320;16.142;2022-08-21T16:24:03;4.70;;;1.90;;
49109;SDS011;34921;52.320;16.142;2022-08-21T16:26:30;3.70;;;1.90;;
49109;SDS011;34921;52.320;16.142;2022-08-21T16:28:56;4.40;;;2.07;;
49109;SDS011;34921;52.320;16.142;2022-08-21T16:31:25;3.77;;;2.00;;
49109;SDS011;34921;52.320;16.142;2022-08-21T16:33:52;4.93;;;2.03;;
49109;SDS011;34921;52.320;16.142;2022-08-21T16:36:21;5.67;;;1.98;;
49109;SDS011;34921;52.320;16.142;2022-08-21T16:38:48;6.92;;;2.08;;
49109;SDS011;34921;52.320;16.142;2022-08-21T16:41:15;5.37;;;2.08;;
49109;SDS011;34921;52.320;16.142;2022-08-21T16:43:44;3.30;;;1.80;;
49109;SDS011;34921;52.320;16.142;2022-08-21T16:46:12;7.90;;;2.30;;
49109;SDS011;34921;52.320;16.142;2022-08-21T16:48:39;6.25;;;1.95;;
49109;SDS011;34921;52.320;16.142;2022-08-21T16:51:10;3.62;;;1.60;;
49109;SDS011;34921;52.320;16.142;2022-08-21T16:53:39;4.53;;;1.80;;
49109;SDS011;34921;52.320;16.142;2022-08-21T16:56:06;4.67;;;1.87;;
49109;SDS011;34921;52.320;16.142;2022-08-21T16:58:34;4.92;;;1.80;;
49109;SDS011;34921;52.320;16.142;2022-08-21T17:01:09;5.75;;;1.85;;
49109;SDS011;34921;52.320;16.142;2022-08-21T17:03:42;4.90;;;1.70;;
49109;SDS011;34921;52.320;16.142;2022-08-21T17:06:14;5.20;;;1.70;;
49109;SDS011;34921;52.320;16.142;2022-08-21T17:08:41;5.22;;;1.80;;
49109;SDS011;34921;52.320;16.142;2022-08-21T17:11:08;3.35;;;1.40;;
49109;SDS011;34921;52.320;16.142;2022-08-21T17:13:39;3.15;;;1.40;;
49109;SDS011;34921;52.320;16.142;2022-08-21T17:16:05;5.00;;;1.82;;
49109;SDS011;34921;52.320;16.142;2022-08-21T17:18:31;4.70;;;1.80;;
49109;SDS011;34921;52.320;16.142;2022-08-21T17:20:58;4.08;;;2.17;;
49109;SDS011;34921;52.320;16.142;2022-08-21T17:23:24;6.80;;;2.20;;
49109;SDS011;34921;52.320;16.142;2022-08-21T17:25:51;6.75;;;2.75;;
49109;SDS011;34921;52.320;16.142;2022-08-21T17:28:22;6.30;;;2.53;;
49109;SDS011;34921;52.320;16.142;2022-08-21T17:30:54;5.20;;;2.10;;
49109;SDS011;34921;52.320;16.142;2022-08-21T17:36:02;7.58;;;3.00;;
49109;SDS011;34921;52.320;16.142;2022-08-21T17:38:29;5.45;;;2.42;;
49109;SDS011;34921;52.320;16.142;2022-08-21T17:40:55;6.70;;;2.55;;
49109;SDS011;34921;52.320;16.142;2022-08-21T17:43:22;5.28;;;2.25;;
49109;SDS011;34921;52.320;16.142;2022-08-21T17:45:53;5.42;;;2.10;;
49109;SDS011;34921;52.320;16.142;2022-08-21T17:48:20;5.37;;;2.33;;
49109;SDS011;34921;52.320;16.142;2022-08-21T17:50:46;5.50;;;2.05;;
49109;SDS011;34921;52.320;16.142;2022-08-21T17:53:12;4.97;;;1.80;;
49109;SDS011;34921;52.320;16.142;2022-08-21T17:55:38;6.08;;;2.27;;
49109;SDS011;34921;52.320;16.142;2022-08-21T17:58:07;4.72;;;2.22;;
49109;SDS011;34921;52.320;16.142;2022-08-21T18:00:35;5.42;;;2.10;;
49109;SDS011;34921;52.320;16.142;2022-08-21T18:03:03;5.42;;;2.42;;
49109;SDS011;34921;52.320;16.142;2022-08-21T18:05:34;6.85;;;2.65;;
49109;SDS011;34921;52.320;16.142;2022-08-21T18:08:00;12.18;;;6.58;;
49109;SDS011;34921;52.320;16.142;2022-08-21T18:10:27;13.58;;;7.03;;
49109;SDS011;34921;52.320;16.142;2022-08-21T18:12:54;9.58;;;5.05;;
49109;SDS011;34921;52.320;16.142;2022-08-21T18:15:21;8.60;;;4.40;;
49109;SDS011;34921;52.320;16.142;2022-08-21T18:17:48;6.20;;;3.72;;
49109;SDS011;34921;52.320;16.142;2022-08-21T18:20:17;8.00;;;3.65;;
49109;SDS011;34921;52.320;16.142;2022-08-21T18:22:44;11.97;;;6.17;;
49109;SDS011;34921;52.320;16.142;2022-08-21T18:25:11;14.78;;;5.55;;
49109;SDS011;34921;52.320;16.142;2022-08-21T18:27:38;9.75;;;4.80;;
49109;SDS011;34921;52.320;16.142;2022-08-21T18:30:07;10.57;;;4.33;;
49109;SDS011;34921;52.320;16.142;2022-08-21T18:32:34;10.55;;;5.22;;
49109;SDS011;34921;52.320;16.142;2022-08-21T18:35:03;9.55;;;4.67;;
49109;SDS011;34921;52.320;16.142;2022-08-21T18:37:30;9.23;;;4.17;;
49109;SDS011;34921;52.320;16.142;2022-08-21T18:42:36;6.55;;;3.20;;
49109;SDS011;34921;52.320;16.142;2022-08-21T18:45:08;7.60;;;3.10;;
49109;SDS011;34921;52.320;16.142;2022-08-21T18:47:40;6.10;;;4.25;;